Time;durP1;ratioP1;P1;durP2;ratioP2;P2;SDS_P1;SDS_P2;PMS_P1;PMS_P2;Temp;Humidity;BMP_temperature;BMP_pressure;BME280_temperature;BME280_humidity;BME280_pressure;Samples;Min_cycle;Max_cycle;Signal;HPM_P1;HPM_P2
2022/08/03 00:01:21;;;;;;;7.97;5.07;;;;;;;;;;5032792;28;20053;-64
2022/08/03 00:03:47;;;;;;;7.95;4.65;;;;;;;;;;5024404;28;20077;-64
2022/08/03 00:06:13;;;;;;;8.10;4.45;;;;;;;;;;5026124;28;20040;-64
2022/08/03 00:08:39;;;;;;;8.40;4.05;;;;;;;;;;5022990;28;20041;-64
2022/08/03 00:11:05;;;;;;;7.28;4.00;;;;;;;;;;5029219;28;20087;-64
2022/08/03 00:13:32;;;;;;;8.07;4.20;;;;;;;;;;5018833;28;20040;-64
2022/08/03 00:15:58;;;;;;;7.28;3.65;;;;;;;;;;5019013;28;20033;-64
2022/08/03 00:18:24;;;;;;;7.95;3.67;;;;;;;;;;5022816;28;20188;-64
2022/08/03 00:20:50;;;;;;;7.93;4.03;;;;;;;;;;5031210;28;20037;-64
2022/08/03 00:23:16;;;;;;;9.57;4.10;;;;;;;;;;5022339;28;20049;-64
2022/08/03 00:25:42;;;;;;;8.82;4.32;;;;;;;;;;5020176;28;20041;-64
2022/08/03 00:28:08;;;;;;;6.63;3.83;;;;;;;;;;5022735;28;20043;-64
2022/08/03 00:30:34;;;;;;;10.27;4.05;;;;;;;;;;5029683;28;20117;-64
2022/08/03 00:33:01;;;;;;;9.18;3.85;;;;;;;;;;5019494;28;20042;-64
2022/08/03 00:35:27;;;;;;;5.63;4.13;;;;;;;;;;5025776;28;20045;-64
2022/08/03 00:37:53;;;;;;;7.28;4.13;;;;;;;;;;5030106;28;20041;-64
2022/08/03 00:40:19;;;;;;;11.23;4.47;;;;;;;;;;5036824;28;20037;-64
2022/08/03 00:42:56;;;;;;;8.38;4.95;;;;;;;;;;5041717;28;20037;-64
2022/08/03 00:45:23;;;;;;;9.70;4.00;;;;;;;;;;5017291;28;20064;-64
2022/08/03 00:47:49;;;;;;;9.80;4.82;;;;;;;;;;5017202;28;20041;-64
2022/08/03 00:50:16;;;;;;;9.02;4.97;;;;;;;;;;5031394;28;20030;-64
2022/08/03 00:52:42;;;;;;;10.65;4.50;;;;;;;;;;5034226;28;20047;-64
2022/08/03 00:55:09;;;;;;;8.20;4.38;;;;;;;;;;5036950;28;20059;-64
2022/08/03 00:57:36;;;;;;;8.20;4.35;;;;;;;;;;5023824;28;20088;-64
2022/08/03 01:00:02;;;;;;;9.80;5.05;;;;;;;;;;5021335;28;20053;-64
2022/08/03 01:02:28;;;;;;;8.85;5.10;;;;;;;;;;5024393;28;20061;-64
2022/08/03 01:04:55;;;;;;;8.13;4.28;;;;;;;;;;5036768;28;20037;-64
2022/08/03 01:07:24;;;;;;;7.85;4.88;;;;;;;;;;5025385;28;20030;-64
2022/08/03 01:10:05;;;;;;;8.00;5.05;;;;;;;;;;5035673;28;20029;-64
2022/08/03 01:12:34;;;;;;;6.53;4.82;;;;;;;;;;5041911;28;20064;-64
2022/08/03 01:15:13;;;;;;;10.85;5.25;;;;;;;;;;5031810;28;20120;-64
2022/08/03 01:17:39;;;;;;;8.73;5.22;;;;;;;;;;5022764;28;20037;-64
2022/08/03 01:20:05;;;;;;;9.25;5.00;;;;;;;;;;5038100;28;20034;-64
2022/08/03 01:22:39;;;;;;;9.38;5.32;;;;;;;;;;5028846;28;20048;-64
2022/08/03 01:25:09;;;;;;;8.05;4.80;;;;;;;;;;5036917;28;20429;-64
2022/08/03 01:27:47;;;;;;;10.13;4.72;;;;;;;;;;5036164;28;20161;-64
2022/08/03 01:30:13;;;;;;;9.57;5.03;;;;;;;;;;5038305;28;20407;-64
2022/08/03 01:32:42;;;;;;;11.20;5.60;;;;;;;;;;5029327;28;20045;-64
2022/08/03 01:35:13;;;;;;;9.40;5.10;;;;;;;;;;5041833;28;20037;-64
2022/08/03 01:37:41;;;;;;;8.65;5.40;;;;;;;;;;5020623;28;20042;-64
2022/08/03 01:40:08;;;;;;;9.50;5.10;;;;;;;;;;5032996;28;20033;-64
2022/08/03 01:42:36;;;;;;;8.43;5.00;;;;;;;;;;5022141;28;20038;-64
2022/08/03 01:45:03;;;;;;;9.68;5.72;;;;;;;;;;5012921;28;20045;-64
2022/08/03 01:47:29;;;;;;;9.35;4.78;;;;;;;;;;5032712;28;20491;-64
2022/08/03 01:49:57;;;;;;;6.97;4.63;;;;;;;;;;5025850;28;20037;-64
2022/08/03 01:52:23;;;;;;;6.93;4.75;;;;;;;;;;5025130;28;20045;-64
2022/08/03 01:54:51;;;;;;;11.80;5.13;;;;;;;;;;5025657;28;20096;-64
2022/08/03 01:57:18;;;;;;;8.95;4.60;;;;;;;;;;5030995;28;20041;-64
2022/08/03 01:59:47;;;;;;;8.23;4.68;;;;;;;;;;5036386;28;20044;-64
2022/08/03 02:02:14;;;;;;;9.18;4.57;;;;;;;;;;5023131;28;20049;-64
2022/08/03 02:04:42;;;;;;;8.60;4.78;;;;;;;;;;5029032;28;20216;-64
2022/08/03 02:07:08;;;;;;;7.88;4.70;;;;;;;;;;5050020;28;20094;-63
2022/08/03 02:09:36;;;;;;;7.00;5.03;;;;;;;;;;5043715;28;20038;-64
2022/08/03 02:12:03;;;;;;;7.35;4.60;;;;;;;;;;5033253;28;20087;-64
2022/08/03 02:14:30;;;;;;;9.55;5.18;;;;;;;;;;5037773;28;20041;-64
2022/08/03 02:16:56;;;;;;;8.15;5.25;;;;;;;;;;5026425;28;20050;-64
2022/08/03 02:19:24;;;;;;;11.88;5.45;;;;;;;;;;5028471;28;20099;-64
2022/08/03 02:21:51;;;;;;;8.63;4.25;;;;;;;;;;5025686;28;20168;-64
2022/08/03 02:24:17;;;;;;;9.27;4.25;;;;;;;;;;5030377;28;20484;-64
2022/08/03 02:26:43;;;;;;;7.20;4.32;;;;;;;;;;5047011;28;20044;-64
2022/08/03 02:29:19;;;;;;;8.35;4.97;;;;;;;;;;5032900;28;20046;-64
2022/08/03 02:31:46;;;;;;;7.43;4.43;;;;;;;;;;5035037;28;20584;-64
2022/08/03 02:34:13;;;;;;;10.02;4.38;;;;;;;;;;5025779;28;20045;-64
2022/08/03 02:36:41;;;;;;;8.38;4.25;;;;;;;;;;5025133;28;20577;-64
2022/08/03 02:39:09;;;;;;;8.88;4.50;;;;;;;;;;5021820;28;20042;-64
2022/08/03 02:41:37;;;;;;;6.80;4.50;;;;;;;;;;5034457;28;20037;-64
2022/08/03 02:44:05;;;;;;;7.22;4.65;;;;;;;;;;5045296;28;20124;-64
2022/08/03 02:46:33;;;;;;;9.35;4.10;;;;;;;;;;5053135;28;20061;-64
2022/08/03 02:49:01;;;;;;;9.15;4.32;;;;;;;;;;5041703;28;20530;-64
2022/08/03 02:51:29;;;;;;;6.57;4.00;;;;;;;;;;5041042;28;20045;-64
2022/08/03 02:53:55;;;;;;;6.20;3.80;;;;;;;;;;5025352;28;20510;-64
2022/08/03 02:56:22;;;;;;;8.32;4.07;;;;;;;;;;5030104;28;20507;-64
2022/08/03 02:58:49;;;;;;;11.98;4.35;;;;;;;;;;5023160;28;20131;-64
2022/08/03 03:01:16;;;;;;;7.97;3.95;;;;;;;;;;5005612;28;20056;-64
2022/08/03 03:03:42;;;;;;;8.32;3.58;;;;;;;;;;5044996;22;20667;-64
2022/08/03 03:06:08;;;;;;;8.38;4.20;;;;;;;;;;5032585;28;20120;-63
2022/08/03 03:08:34;;;;;;;8.73;3.75;;;;;;;;;;5029967;28;20037;-64
2022/08/03 03:11:01;;;;;;;6.25;3.58;;;;;;;;;;5050164;28;20048;-64
2022/08/03 03:13:30;;;;;;;8.85;3.70;;;;;;;;;;5040143;28;20168;-63
2022/08/03 03:15:59;;;;;;;7.45;3.40;;;;;;;;;;5031364;28;20037;-63
2022/08/03 03:18:27;;;;;;;7.80;3.83;;;;;;;;;;5030636;28;20047;-63
2022/08/03 03:20:53;;;;;;;10.82;3.65;;;;;;;;;;5014016;28;20048;-63
2022/08/03 03:23:20;;;;;;;6.57;3.05;;;;;;;;;;5029966;28;20407;-63
2022/08/03 03:25:47;;;;;;;9.05;2.80;;;;;;;;;;5014185;28;20043;-63
2022/08/03 03:28:13;;;;;;;8.88;3.25;;;;;;;;;;5029056;28;20120;-63
2022/08/03 03:30:39;;;;;;;5.15;2.80;;;;;;;;;;5029655;28;20403;-63
2022/08/03 03:33:05;;;;;;;8.02;3.20;;;;;;;;;;5023055;28;20546;-63
2022/08/03 03:35:32;;;;;;;11.75;3.30;;;;;;;;;;5030644;28;20040;-63
2022/08/03 03:37:58;;;;;;;7.57;3.38;;;;;;;;;;5028587;28;20075;-63
2022/08/03 03:40:24;;;;;;;5.35;2.70;;;;;;;;;;5028802;28;20494;-63
2022/08/03 03:42:50;;;;;;;8.60;3.28;;;;;;;;;;5024804;28;20727;-63
2022/08/03 03:45:17;;;;;;;9.40;3.00;;;;;;;;;;5030417;28;20034;-63
2022/08/03 03:47:43;;;;;;;8.18;2.75;;;;;;;;;;5030122;28;20039;-63
2022/08/03 03:50:09;;;;;;;8.32;3.30;;;;;;;;;;5025490;28;20092;-63
2022/08/03 03:52:36;;;;;;;9.10;2.50;;;;;;;;;;5025943;28;20073;-63
2022/08/03 03:55:02;;;;;;;9.70;2.53;;;;;;;;;;5026939;28;20029;-63
2022/08/03 03:57:28;;;;;;;8.85;2.78;;;;;;;;;;5030145;28;20487;-63
2022/08/03 03:59:54;;;;;;;7.45;3.00;;;;;;;;;;5030176;28;20045;-63
2022/08/03 04:02:20;;;;;;;6.45;2.38;;;;;;;;;;5019484;28;20041;-63
2022/08/03 04:13:08;;;;;;;9.60;2.80;;;;;;;;;;5027777;28;20041;-63
2022/08/03 04:15:35;;;;;;;9.73;2.85;;;;;;;;;;5028876;28;20550;-63
2022/08/03 04:18:03;;;;;;;7.20;2.65;;;;;;;;;;5019918;28;20037;-63
2022/08/03 04:20:31;;;;;;;7.00;2.90;;;;;;;;;;5024345;28;20414;-63
2022/08/03 04:22:59;;;;;;;7.70;2.75;;;;;;;;;;5025621;28;20037;-63
2022/08/03 04:25:26;;;;;;;10.10;2.95;;;;;;;;;;5027944;28;20080;-63
2022/08/03 04:27:54;;;;;;;7.18;2.92;;;;;;;;;;5028538;28;20108;-63
2022/08/03 04:30:21;;;;;;;8.55;3.55;;;;;;;;;;5028542;28;20041;-63
2022/08/03 04:32:50;;;;;;;9.45;2.90;;;;;;;;;;5030585;28;20116;-63
2022/08/03 04:35:17;;;;;;;6.65;3.15;;;;;;;;;;5030339;28;20037;-64
2022/08/03 04:37:47;;;;;;;8.48;3.25;;;;;;;;;;5027662;28;20048;-63
2022/08/03 04:40:14;;;;;;;8.98;3.40;;;;;;;;;;5030823;28;20033;-64
2022/08/03 04:42:41;;;;;;;12.05;3.28;;;;;;;;;;5030480;28;20639;-64
2022/08/03 04:45:11;;;;;;;6.85;3.60;;;;;;;;;;5029298;28;20384;-63
2022/08/03 04:47:37;;;;;;;11.65;4.03;;;;;;;;;;5007850;28;20041;-63
2022/08/03 04:50:04;;;;;;;9.80;3.58;;;;;;;;;;5029777;28;20391;-63
2022/08/03 04:52:30;;;;;;;7.88;3.80;;;;;;;;;;5028158;28;20037;-63
2022/08/03 04:54:56;;;;;;;10.20;4.00;;;;;;;;;;5029739;28;20033;-63
2022/08/03 04:57:23;;;;;;;8.05;4.22;;;;;;;;;;5023107;28;20048;-63
2022/08/03 04:59:52;;;;;;;8.23;3.95;;;;;;;;;;5015119;28;20180;-63
2022/08/03 05:02:18;;;;;;;9.10;3.63;;;;;;;;;;5021433;28;20045;-64
2022/08/03 05:04:45;;;;;;;7.05;3.70;;;;;;;;;;5029194;28;20029;-63
2022/08/03 05:07:14;;;;;;;10.20;3.78;;;;;;;;;;5030108;28;20046;-63
2022/08/03 05:09:41;;;;;;;8.30;3.97;;;;;;;;;;5013040;28;20041;-63
2022/08/03 05:12:07;;;;;;;9.02;4.30;;;;;;;;;;5032648;28;20037;-63
2022/08/03 05:14:35;;;;;;;9.32;4.40;;;;;;;;;;5033798;28;20083;-63
2022/08/03 05:17:01;;;;;;;10.38;4.00;;;;;;;;;;5034210;28;20167;-63
2022/08/03 05:19:28;;;;;;;12.10;4.20;;;;;;;;;;5022385;28;20479;-61
2022/08/03 05:21:54;;;;;;;12.35;4.32;;;;;;;;;;5024815;28;20041;-61
2022/08/03 05:24:20;;;;;;;9.10;4.50;;;;;;;;;;5032336;28;20048;-61
2022/08/03 05:26:46;;;;;;;12.30;4.60;;;;;;;;;;5027871;28;20034;-60
2022/08/03 05:29:12;;;;;;;9.73;3.80;;;;;;;;;;5025412;28;20045;-60
2022/08/03 05:31:39;;;;;;;9.93;3.88;;;;;;;;;;5029699;28;20128;-60
2022/08/03 05:34:05;;;;;;;6.85;4.15;;;;;;;;;;5025801;28;20123;-61
2022/08/03 05:36:31;;;;;;;9.38;4.18;;;;;;;;;;5026315;28;20061;-62
2022/08/03 05:38:57;;;;;;;11.57;4.40;;;;;;;;;;5025143;28;20045;-62
2022/08/03 05:41:23;;;;;;;8.00;3.70;;;;;;;;;;5028674;28;20422;-61
2022/08/03 05:43:49;;;;;;;10.85;4.25;;;;;;;;;;5030107;28;20056;-62
2022/08/03 05:46:15;;;;;;;10.05;4.10;;;;;;;;;;5030269;28;20111;-62
2022/08/03 05:48:42;;;;;;;13.75;4.57;;;;;;;;;;5029745;28;20064;-61
2022/08/03 05:51:09;;;;;;;12.05;3.88;;;;;;;;;;5030429;28;20049;-62
2022/08/03 05:53:36;;;;;;;10.88;4.20;;;;;;;;;;5029619;28;20052;-62
2022/08/03 05:56:02;;;;;;;13.43;4.32;;;;;;;;;;5025050;28;20075;-62
2022/08/03 05:58:28;;;;;;;10.45;4.18;;;;;;;;;;5030694;28;20037;-62
2022/08/03 06:00:54;;;;;;;11.60;4.53;;;;;;;;;;5033141;28;20037;-62
2022/08/03 06:03:20;;;;;;;11.75;4.10;;;;;;;;;;5029061;28;20045;-62
2022/08/03 06:05:47;;;;;;;10.57;4.55;;;;;;;;;;5030240;28;20033;-62
2022/08/03 06:08:13;;;;;;;12.32;4.00;;;;;;;;;;5033018;28;20041;-63
2022/08/03 06:10:39;;;;;;;10.75;4.82;;;;;;;;;;5033099;28;20034;-62
2022/08/03 06:13:05;;;;;;;9.38;4.50;;;;;;;;;;5019844;28;20515;-62
2022/08/03 06:15:32;;;;;;;14.50;4.78;;;;;;;;;;5024137;28;21207;-62
2022/08/03 06:17:58;;;;;;;9.05;4.40;;;;;;;;;;5019424;28;20045;-62
2022/08/03 06:20:25;;;;;;;9.63;4.40;;;;;;;;;;5029453;28;20037;-63
2022/08/03 06:22:51;;;;;;;11.05;4.78;;;;;;;;;;5015532;28;20045;-62
2022/08/03 06:25:18;;;;;;;11.23;4.97;;;;;;;;;;5028975;28;20077;-62
2022/08/03 06:27:44;;;;;;;10.02;4.28;;;;;;;;;;5032881;28;20064;-62
2022/08/03 06:30:11;;;;;;;9.75;4.53;;;;;;;;;;5027725;28;20487;-62
2022/08/03 06:32:38;;;;;;;10.35;4.15;;;;;;;;;;5026171;28;20033;-62
2022/08/03 06:35:04;;;;;;;13.10;4.82;;;;;;;;;;5024198;28;20044;-62
2022/08/03 06:37:31;;;;;;;9.43;4.15;;;;;;;;;;5029492;28;20491;-63
2022/08/03 06:39:57;;;;;;;10.90;3.90;;;;;;;;;;5027139;28;20443;-62
2022/08/03 06:42:23;;;;;;;12.43;4.03;;;;;;;;;;5031030;28;20054;-62
2022/08/03 06:44:50;;;;;;;12.75;4.40;;;;;;;;;;5026560;28;20042;-62
2022/08/03 06:47:16;;;;;;;13.48;4.50;;;;;;;;;;5030538;28;20042;-63
2022/08/03 06:49:42;;;;;;;9.20;3.75;;;;;;;;;;5029291;28;20665;-63
2022/08/03 06:52:08;;;;;;;14.00;3.75;;;;;;;;;;5026805;28;20041;-63
2022/08/03 06:54:34;;;;;;;11.98;3.78;;;;;;;;;;5027667;28;20510;-63
2022/08/03 06:57:00;;;;;;;13.18;3.75;;;;;;;;;;5029130;28;20047;-63
2022/08/03 06:59:26;;;;;;;10.10;3.83;;;;;;;;;;5027468;28;20164;-63
2022/08/03 07:01:52;;;;;;;14.95;4.30;;;;;;;;;;5030648;28;20142;-63
2022/08/03 07:04:18;;;;;;;11.63;3.78;;;;;;;;;;5022904;28;20559;-63
2022/08/03 07:06:44;;;;;;;15.77;3.70;;;;;;;;;;5027468;28;20121;-63
2022/08/03 07:09:10;;;;;;;15.38;3.88;;;;;;;;;;5027805;28;20033;-63
2022/08/03 07:11:36;;;;;;;11.00;3.80;;;;;;;;;;5029827;28;20423;-63
2022/08/03 07:14:03;;;;;;;12.38;3.40;;;;;;;;;;5023383;28;20044;-62
2022/08/03 07:16:29;;;;;;;9.50;3.20;;;;;;;;;;5030475;28;20113;-63
2022/08/03 07:18:55;;;;;;;10.80;3.50;;;;;;;;;;5026800;28;20040;-62
2022/08/03 07:21:21;;;;;;;12.48;3.28;;;;;;;;;;5028827;28;20057;-62
2022/08/03 07:23:47;;;;;;;12.00;4.97;;;;;;;;;;5025569;28;20033;-63
2022/08/03 07:26:13;;;;;;;15.20;3.67;;;;;;;;;;5026961;28;20041;-63
2022/08/03 07:28:39;;;;;;;11.10;3.47;;;;;;;;;;5024969;28;20055;-62
2022/08/03 07:31:05;;;;;;;17.92;4.38;;;;;;;;;;5010656;28;21887;-63
2022/08/03 07:33:31;;;;;;;10.18;3.35;;;;;;;;;;5025190;28;20072;-63
2022/08/03 07:35:57;;;;;;;12.52;3.78;;;;;;;;;;5025023;28;20404;-63
2022/08/03 07:38:23;;;;;;;12.30;4.13;;;;;;;;;;5027117;28;20843;-63
2022/08/03 07:40:49;;;;;;;15.38;4.35;;;;;;;;;;5030037;28;20091;-63
2022/08/03 07:43:16;;;;;;;12.82;3.85;;;;;;;;;;5030284;28;20095;-63
2022/08/03 07:45:42;;;;;;;14.30;4.10;;;;;;;;;;5026844;28;20087;-64
2022/08/03 07:48:08;;;;;;;12.68;4.00;;;;;;;;;;5032311;28;20052;-63
2022/08/03 07:50:34;;;;;;;13.90;3.70;;;;;;;;;;5032372;28;20045;-63
2022/08/03 07:53:00;;;;;;;16.85;4.30;;;;;;;;;;5032502;28;20120;-63
2022/08/03 07:55:27;;;;;;;12.75;3.63;;;;;;;;;;5029228;28;20208;-63
2022/08/03 07:58:21;;;;;;;14.23;4.03;;;;;;;;;;5029328;28;20565;-64
2022/08/03 08:00:47;;;;;;;9.75;3.28;;;;;;;;;;5028460;28;20128;-63
2022/08/03 08:03:13;;;;;;;13.88;3.33;;;;;;;;;;5030496;28;20159;-64
2022/08/03 08:05:39;;;;;;;13.32;3.63;;;;;;;;;;5027600;28;20038;-63
2022/08/03 08:08:06;;;;;;;16.77;4.25;;;;;;;;;;5024023;28;20159;-63
2022/08/03 08:10:32;;;;;;;11.57;3.80;;;;;;;;;;5014792;28;20041;-64
2022/08/03 08:12:58;;;;;;;11.18;3.50;;;;;;;;;;5030572;28;20134;-64
2022/08/03 08:15:24;;;;;;;14.98;4.00;;;;;;;;;;5029311;28;20239;-64
2022/08/03 08:17:52;;;;;;;12.75;3.95;;;;;;;;;;5022957;28;20044;-64
2022/08/03 08:20:22;;;;;;;13.55;3.80;;;;;;;;;;5028738;28;20044;-64
2022/08/03 08:22:48;;;;;;;15.38;4.43;;;;;;;;;;5025580;28;20400;-64
2022/08/03 08:25:15;;;;;;;13.13;3.40;;;;;;;;;;5021792;28;20036;-64
2022/08/03 08:27:48;;;;;;;12.07;3.50;;;;;;;;;;5029146;28;20103;-64
2022/08/03 08:30:15;;;;;;;12.52;3.80;;;;;;;;;;5025992;28;20029;-64
2022/08/03 08:32:41;;;;;;;13.75;4.18;;;;;;;;;;5022757;28;20377;-63
2022/08/03 08:35:08;;;;;;;14.38;3.85;;;;;;;;;;5031142;28;20052;-64
2022/08/03 08:37:34;;;;;;;14.27;4.07;;;;;;;;;;5030936;28;20041;-63
2022/08/03 08:40:00;;;;;;;10.32;2.92;;;;;;;;;;5029625;28;20041;-64
2022/08/03 08:42:26;;;;;;;16.38;3.75;;;;;;;;;;5021991;28;20085;-64
2022/08/03 08:44:52;;;;;;;15.40;3.63;;;;;;;;;;5030137;28;20041;-64
2022/08/03 08:47:19;;;;;;;13.18;3.47;;;;;;;;;;5028408;28;20513;-65
2022/08/03 08:49:46;;;;;;;13.18;4.20;;;;;;;;;;5030173;28;20033;-64
2022/08/03 08:52:13;;;;;;;14.45;3.78;;;;;;;;;;5029854;28;20079;-64
2022/08/03 08:54:41;;;;;;;15.88;3.65;;;;;;;;;;5030031;28;20037;-64
2022/08/03 08:57:08;;;;;;;10.15;3.80;;;;;;;;;;5030258;28;20044;-63
2022/08/03 08:59:35;;;;;;;14.07;3.50;;;;;;;;;;5028439;28;20499;-64
2022/08/03 09:02:01;;;;;;;14.35;3.85;;;;;;;;;;5025914;28;20456;-63
2022/08/03 09:04:28;;;;;;;15.65;3.53;;;;;;;;;;5060846;22;20102;-61
2022/08/03 09:06:54;;;;;;;12.63;3.78;;;;;;;;;;5049005;28;20048;-61
2022/08/03 09:09:20;;;;;;;16.20;3.67;;;;;;;;;;5050674;28;20029;-62
2022/08/03 09:11:48;;;;;;;13.40;3.33;;;;;;;;;;5051457;28;20128;-62
2022/08/03 09:14:14;;;;;;;14.38;3.72;;;;;;;;;;5049810;28;20037;-61
2022/08/03 09:16:55;;;;;;;13.48;3.33;;;;;;;;;;5049887;28;20036;-62
2022/08/03 09:19:21;;;;;;;15.32;4.10;;;;;;;;;;5050244;28;20544;-62
2022/08/03 09:22:07;;;;;;;13.68;3.47;;;;;;;;;;5051415;28;20127;-62
2022/08/03 09:24:33;;;;;;;14.95;3.42;;;;;;;;;;5047730;28;20037;-62
2022/08/03 09:26:59;;;;;;;9.73;3.22;;;;;;;;;;5051160;28;20059;-62
2022/08/03 09:29:25;;;;;;;14.85;3.13;;;;;;;;;;5050731;28;20055;-62
2022/08/03 09:31:59;;;;;;;17.65;3.50;;;;;;;;;;5050489;28;20118;-62
2022/08/03 09:34:27;;;;;;;15.25;3.25;;;;;;;;;;5049371;28;20037;-62
2022/08/03 09:36:53;;;;;;;14.18;3.70;;;;;;;;;;5033355;28;20068;-62
2022/08/03 09:39:20;;;;;;;14.95;3.60;;;;;;;;;;5049878;28;20040;-62
2022/08/03 09:41:48;;;;;;;18.13;3.40;;;;;;;;;;5050938;28;20045;-62
2022/08/03 09:44:14;;;;;;;13.70;3.53;;;;;;;;;;5048921;28;20037;-62
2022/08/03 09:46:48;;;;;;;13.25;3.58;;;;;;;;;;5033430;28;20834;-62
2022/08/03 09:49:14;;;;;;;13.88;3.20;;;;;;;;;;5032286;28;20411;-63
2022/08/03 09:51:40;;;;;;;12.95;3.65;;;;;;;;;;5051030;28;20401;-62
2022/08/03 09:54:06;;;;;;;15.90;3.85;;;;;;;;;;5050103;28;20072;-62
2022/08/03 09:56:43;;;;;;;13.05;3.53;;;;;;;;;;5050102;28;20044;-62
2022/08/03 09:59:10;;;;;;;14.02;3.45;;;;;;;;;;5053747;28;20040;-62
2022/08/03 10:01:38;;;;;;;13.30;3.38;;;;;;;;;;5054594;28;20075;-62
2022/08/03 10:04:04;;;;;;;12.52;3.08;;;;;;;;;;5053978;28;20052;-62
2022/08/03 10:06:30;;;;;;;16.98;3.50;;;;;;;;;;5052679;28;20041;-62
2022/08/03 10:09:06;;;;;;;15.85;3.03;;;;;;;;;;5034863;28;20028;-62
2022/08/03 10:11:33;;;;;;;15.82;3.45;;;;;;;;;;5053922;28;20045;-62
2022/08/03 10:14:02;;;;;;;12.90;2.78;;;;;;;;;;5054596;28;20071;-62
2022/08/03 10:16:32;;;;;;;19.33;2.67;;;;;;;;;;5053103;28;20037;-62
2022/08/03 10:18:58;;;;;;;14.38;2.90;;;;;;;;;;5052464;28;20063;-62
2022/08/03 10:21:25;;;;;;;17.50;3.28;;;;;;;;;;5053589;28;20062;-62
2022/08/03 10:23:52;;;;;;;15.02;2.88;;;;;;;;;;5053768;28;20090;-63
2022/08/03 10:26:19;;;;;;;16.25;2.80;;;;;;;;;;5053140;28;20496;-62
2022/08/03 10:28:49;;;;;;;12.35;2.72;;;;;;;;;;5052749;28;20510;-62
2022/08/03 10:31:16;;;;;;;14.70;2.67;;;;;;;;;;5053729;28;20037;-62
2022/08/03 10:33:43;;;;;;;11.35;2.95;;;;;;;;;;5053822;28;20503;-62
2022/08/03 10:36:10;;;;;;;13.75;2.58;;;;;;;;;;5053414;28;20040;-62
2022/08/03 10:39:02;;;;;;;14.05;3.13;;;;;;;;;;5044146;28;20079;-62
2022/08/03 10:41:31;;;;;;;14.98;3.10;;;;;;;;;;5048788;28;20048;-62
2022/08/03 10:44:09;;;;;;;16.48;3.13;;;;;;;;;;5053604;28;20041;-62
2022/08/03 10:46:36;;;;;;;15.48;2.72;;;;;;;;;;5052851;28;20435;-62
2022/08/03 10:49:02;;;;;;;12.02;2.50;;;;;;;;;;5052475;28;20399;-62
2022/08/03 10:51:31;;;;;;;16.02;2.92;;;;;;;;;;5053578;28;20398;-62
2022/08/03 10:53:58;;;;;;;11.18;2.78;;;;;;;;;;5053903;28;20087;-62
2022/08/03 10:59:19;;;;;;;17.55;3.05;;;;;;;;;;5051923;28;20068;-62
2022/08/03 11:01:53;;;;;;;15.30;2.78;;;;;;;;;;5035365;28;20501;-63
2022/08/03 11:04:20;;;;;;;14.65;3.03;;;;;;;;;;5053366;28;20493;-62
2022/08/03 11:06:47;;;;;;;12.48;2.55;;;;;;;;;;5051696;28;20041;-63
2022/08/03 11:09:13;;;;;;;13.57;2.33;;;;;;;;;;5051871;28;20041;-63
2022/08/03 11:11:40;;;;;;;12.63;2.38;;;;;;;;;;5052312;28;20037;-62
2022/08/03 11:14:09;;;;;;;16.02;3.03;;;;;;;;;;5053042;28;20045;-62
2022/08/03 11:16:44;;;;;;;12.27;2.65;;;;;;;;;;5034411;28;20049;-62
2022/08/03 11:19:11;;;;;;;13.27;2.78;;;;;;;;;;5051899;28;20548;-62
2022/08/03 11:21:49;;;;;;;10.38;2.55;;;;;;;;;;5035315;28;20040;-62
2022/08/03 11:24:34;;;;;;;16.40;2.75;;;;;;;;;;5052685;28;20115;-62
2022/08/03 11:27:15;;;;;;;15.15;2.83;;;;;;;;;;5048567;28;20396;-63
2022/08/03 11:30:00;;;;;;;17.05;3.17;;;;;;;;;;5040205;28;20041;-63
2022/08/03 11:32:52;;;;;;;13.98;2.70;;;;;;;;;;5052817;28;20052;-63
2022/08/03 11:35:28;;;;;;;12.75;3.60;;;;;;;;;;5049312;28;20542;-62
2022/08/03 11:38:00;;;;;;;14.98;2.97;;;;;;;;;;5052423;28;20098;-63
2022/08/03 11:40:36;;;;;;;16.33;2.90;;;;;;;;;;5030316;28;20131;-63
2022/08/03 11:43:02;;;;;;;16.80;2.63;;;;;;;;;;5054280;28;20688;-63
2022/08/03 11:45:30;;;;;;;9.23;2.40;;;;;;;;;;5052526;28;20033;-62
2022/08/03 11:47:57;;;;;;;13.40;2.85;;;;;;;;;;5052732;28;20084;-63
2022/08/03 11:50:24;;;;;;;16.63;2.83;;;;;;;;;;5050267;28;20402;-62
2022/08/03 11:52:50;;;;;;;10.85;2.83;;;;;;;;;;5052284;28;20147;-63
2022/08/03 11:55:19;;;;;;;15.18;2.50;;;;;;;;;;5052521;28;20059;-63
2022/08/03 11:57:46;;;;;;;13.40;2.80;;;;;;;;;;5052420;28;20052;-62
2022/08/03 12:00:27;;;;;;;11.52;2.47;;;;;;;;;;5050377;28;20403;-62
2022/08/03 12:03:10;;;;;;;16.20;2.35;;;;;;;;;;5051873;28;20495;-62
2022/08/03 12:05:37;;;;;;;10.63;2.47;;;;;;;;;;5052348;28;20071;-62
2022/08/03 12:08:04;;;;;;;15.02;2.67;;;;;;;;;;5052161;28;20040;-62
2022/08/03 12:10:30;;;;;;;16.38;3.40;;;;;;;;;;5048815;28;20079;-62
2022/08/03 12:12:57;;;;;;;14.32;2.53;;;;;;;;;;5052166;28;20028;-62
2022/08/03 12:15:29;;;;;;;15.13;3.05;;;;;;;;;;5051918;28;20127;-63
2022/08/03 12:17:56;;;;;;;11.43;2.67;;;;;;;;;;5051620;28;20510;-62
2022/08/03 12:20:25;;;;;;;17.42;2.90;;;;;;;;;;5049118;28;20033;-62
2022/08/03 12:22:51;;;;;;;15.63;2.22;;;;;;;;;;5033486;28;20729;-63
2022/08/03 12:25:22;;;;;;;14.57;2.90;;;;;;;;;;5052076;28;20037;-62
2022/08/03 12:27:48;;;;;;;13.75;2.70;;;;;;;;;;5051642;28;20394;-62
2022/08/03 12:30:14;;;;;;;11.07;2.25;;;;;;;;;;5049657;28;20037;-62
2022/08/03 12:32:42;;;;;;;10.93;2.17;;;;;;;;;;5051472;28;20060;-62
2022/08/03 12:35:08;;;;;;;12.88;2.13;;;;;;;;;;5051094;28;20037;-62
2022/08/03 12:37:35;;;;;;;15.88;2.60;;;;;;;;;;5051629;28;20465;-63
2022/08/03 12:40:03;;;;;;;15.30;2.65;;;;;;;;;;5049772;28;20091;-62
2022/08/03 12:42:30;;;;;;;13.77;2.72;;;;;;;;;;5051464;28;20041;-63
2022/08/03 12:44:56;;;;;;;12.02;2.50;;;;;;;;;;5051646;28;20099;-62
2022/08/03 12:47:22;;;;;;;10.48;2.35;;;;;;;;;;5049048;28;20037;-63
2022/08/03 12:49:49;;;;;;;12.35;2.67;;;;;;;;;;5050068;28;20079;-62
2022/08/03 12:52:16;;;;;;;10.23;2.08;;;;;;;;;;5050262;28;20039;-62
2022/08/03 12:54:42;;;;;;;15.23;2.30;;;;;;;;;;5047037;28;20051;-62
2022/08/03 12:57:12;;;;;;;17.92;2.38;;;;;;;;;;5048780;28;20033;-62
2022/08/03 12:59:42;;;;;;;16.67;2.77;;;;;;;;;;5037550;28;20494;-62
2022/08/03 13:02:08;;;;;;;;;;;;;;;;;;5046491;28;20068;-62
2022/08/03 13:04:35;;;;;;;11.68;2.05;;;;;;;;;;5051158;28;20290;-62
2022/08/03 13:07:02;;;;;;;10.68;2.75;;;;;;;;;;5050934;28;20029;-61
2022/08/03 13:09:30;;;;;;;14.30;2.55;;;;;;;;;;5039451;28;20033;-62
2022/08/03 13:12:10;;;;;;;12.85;2.30;;;;;;;;;;5048839;28;20090;-62
2022/08/03 13:14:36;;;;;;;12.20;2.20;;;;;;;;;;5042875;28;20049;-62
2022/08/03 13:17:02;;;;;;;12.55;2.15;;;;;;;;;;5043408;28;20798;-62
2022/08/03 13:19:28;;;;;;;12.50;2.38;;;;;;;;;;5049698;28;20037;-62
2022/08/03 13:21:54;;;;;;;11.10;2.65;;;;;;;;;;5047810;28;20045;-62
2022/08/03 13:24:20;;;;;;;9.77;2.33;;;;;;;;;;5041177;28;20038;-62
2022/08/03 13:26:46;;;;;;;9.95;2.00;;;;;;;;;;5036518;28;20047;-62
2022/08/03 13:29:12;;;;;;;11.15;2.05;;;;;;;;;;5042698;28;20553;-62
2022/08/03 13:31:38;;;;;;;13.88;2.38;;;;;;;;;;5032235;28;20041;-62
2022/08/03 13:34:04;;;;;;;12.90;2.42;;;;;;;;;;5054125;28;20037;-62
2022/08/03 13:36:30;;;;;;;12.70;2.22;;;;;;;;;;5052593;28;20124;-62
2022/08/03 13:38:56;;;;;;;10.85;2.22;;;;;;;;;;5054937;28;20439;-62
2022/08/03 13:41:22;;;;;;;13.05;2.83;;;;;;;;;;5050038;28;20037;-62
2022/08/03 13:43:48;;;;;;;10.77;2.50;;;;;;;;;;5057483;28;20087;-63
2022/08/03 13:46:14;;;;;;;11.77;2.58;;;;;;;;;;5046205;28;20045;-62
2022/08/03 13:48:40;;;;;;;9.40;2.00;;;;;;;;;;5050404;28;20075;-63
2022/08/03 13:51:06;;;;;;;10.20;2.17;;;;;;;;;;5052704;28;20401;-62
2022/08/03 13:53:32;;;;;;;9.60;2.55;;;;;;;;;;5054616;28;20041;-62
2022/08/03 13:55:58;;;;;;;13.82;2.45;;;;;;;;;;5051297;28;20513;-62
2022/08/03 13:58:24;;;;;;;14.30;2.72;;;;;;;;;;5053046;28;20045;-61
2022/08/03 14:00:50;;;;;;;12.80;2.65;;;;;;;;;;5051886;28;20037;-62
2022/08/03 14:03:16;;;;;;;11.13;2.28;;;;;;;;;;5054268;28;20040;-62
2022/08/03 14:05:43;;;;;;;11.10;2.30;;;;;;;;;;5053610;28;20029;-61
2022/08/03 14:08:09;;;;;;;7.78;2.00;;;;;;;;;;5053551;28;20043;-61
2022/08/03 14:10:37;;;;;;;13.98;2.05;;;;;;;;;;5045354;28;20040;-61
2022/08/03 14:13:03;;;;;;;14.45;2.58;;;;;;;;;;5053288;28;20044;-62
2022/08/03 14:15:30;;;;;;;11.07;2.50;;;;;;;;;;5054428;28;20629;-62
2022/08/03 14:17:56;;;;;;;12.73;2.50;;;;;;;;;;5053454;28;20115;-62
2022/08/03 14:20:22;;;;;;;10.23;2.35;;;;;;;;;;5053163;28;20112;-62
2022/08/03 14:22:48;;;;;;;10.98;1.92;;;;;;;;;;5050061;28;20033;-62
2022/08/03 14:25:14;;;;;;;12.05;2.67;;;;;;;;;;5052847;28;20040;-62
2022/08/03 14:27:43;;;;;;;10.75;2.40;;;;;;;;;;5043008;28;20112;-62
2022/08/03 14:30:09;;;;;;;16.77;2.63;;;;;;;;;;5053690;28;20116;-62
2022/08/03 14:32:35;;;;;;;8.15;1.85;;;;;;;;;;5016165;28;20087;-62
2022/08/03 14:35:01;;;;;;;9.82;2.40;;;;;;;;;;5044738;28;20037;-61
2022/08/03 14:37:27;;;;;;;12.00;2.25;;;;;;;;;;5049191;28;20052;-62
2022/08/03 14:39:53;;;;;;;12.65;2.53;;;;;;;;;;5052383;28;20044;-62
2022/08/03 14:42:19;;;;;;;11.70;2.50;;;;;;;;;;5052075;28;20033;-62
2022/08/03 14:44:46;;;;;;;11.73;2.70;;;;;;;;;;5049577;28;20395;-61
2022/08/03 14:47:12;;;;;;;10.13;2.05;;;;;;;;;;5051021;28;20495;-62
2022/08/03 14:49:38;;;;;;;9.10;2.13;;;;;;;;;;5052128;28;20457;-62